createdAt,value
2023-08-12T00:02:01.787Z,89.68
2023-08-12T00:04:28.791Z,89.79
2023-08-12T00:06:55.733Z,90.23
2023-08-12T00:09:22.559Z,91.20
2023-08-12T00:11:49.620Z,91.23
2023-08-12T00:14:16.489Z,91.33
2023-08-12T00:16:43.502Z,91.45
2023-08-12T00:19:10.417Z,91.24
2023-08-12T00:21:37.459Z,91.77
2023-08-12T00:24:04.618Z,91.60
2023-08-12T00:26:31.553Z,92.59
2023-08-12T00:28:58.300Z,92.45
2023-08-12T00:31:25.479Z,92.02
2023-08-12T00:33:52.258Z,92.68
2023-08-12T00:36:19.340Z,92.12
2023-08-12T00:38:46.160Z,92.29
2023-08-12T00:41:13.082Z,92.74
2023-08-12T00:43:39.952Z,92.45
2023-08-12T00:46:07.004Z,92.15
2023-08-12T00:48:34.052Z,93.15
2023-08-12T00:51:01.045Z,92.89
2023-08-12T00:53:28.336Z,93.10
2023-08-12T00:55:56.189Z,93.60
2023-08-12T00:58:23.314Z,92.84
2023-08-12T01:00:51.467Z,93.31
2023-08-12T01:03:19.097Z,93.00
2023-08-12T01:05:47.582Z,92.23
2023-08-12T01:08:14.630Z,92.65
2023-08-12T01:10:48.561Z,92.46
2023-08-12T01:13:32.385Z,92.42
2023-08-12T01:16:02.054Z,92.35
2023-08-12T01:18:29.426Z,91.99
2023-08-12T01:20:57.047Z,92.25
2023-08-12T01:23:23.832Z,92.13
2023-08-12T01:25:50.713Z,91.79
2023-08-12T01:28:17.620Z,91.56
2023-08-12T01:31:16.389Z,91.85
2023-08-12T01:34:08.215Z,91.78
2023-08-12T01:36:37.989Z,92.05
2023-08-12T01:39:06.834Z,91.73
2023-08-12T01:41:33.861Z,91.99
2023-08-12T01:44:03.107Z,92.50
2023-08-12T01:46:30.505Z,92.07
2023-08-12T01:48:57.481Z,92.50
2023-08-12T01:51:24.390Z,93.12
2023-08-12T01:53:51.297Z,93.22
2023-08-12T01:56:18.208Z,93.47
2023-08-12T01:58:45.100Z,94.53
2023-08-12T02:01:12.236Z,94.23
2023-08-12T02:03:40.241Z,94.61
2023-08-12T02:06:07.515Z,94.61
2023-08-12T02:08:34.886Z,94.57
2023-08-12T02:11:01.818Z,95.25
2023-08-12T02:13:29.044Z,95.01
2023-08-12T02:15:55.900Z,94.04
2023-08-12T02:18:23.329Z,94.57
2023-08-12T02:20:50.158Z,95.12
2023-08-12T02:23:17.147Z,94.84
2023-08-12T02:25:44.036Z,95.33
2023-08-12T02:28:10.941Z,94.67
2023-08-12T02:30:37.661Z,95.28
2023-08-12T02:33:04.812Z,95.30
2023-08-12T02:35:31.869Z,95.63
2023-08-12T02:37:58.691Z,95.20
2023-08-12T02:40:25.500Z,95.24
2023-08-12T02:42:52.347Z,95.38
2023-08-12T02:45:19.245Z,95.48
2023-08-12T02:47:46.211Z,94.93
2023-08-12T02:50:12.954Z,95.37
2023-08-12T02:52:39.873Z,95.31
2023-08-12T02:55:07.032Z,95.21
2023-08-12T02:57:33.973Z,95.39
2023-08-12T03:00:00.774Z,95.36
2023-08-12T03:02:27.709Z,95.46
2023-08-12T03:04:55.469Z,95.50
2023-08-12T03:07:22.332Z,95.98
2023-08-12T03:09:49.232Z,96.28
2023-08-12T03:12:16.110Z,96.33
2023-08-12T03:14:42.885Z,96.76
2023-08-12T03:17:11.129Z,96.35
2023-08-12T03:19:38.315Z,96.86
2023-08-12T03:22:06.127Z,96.91
2023-08-12T03:24:33.565Z,97.25
2023-08-12T03:27:01.041Z,97.70
2023-08-12T03:29:28.045Z,98.21
2023-08-12T03:31:55.021Z,100.00
2023-08-12T03:34:23.219Z,100.00
2023-08-12T03:36:51.424Z,100.00
2023-08-12T03:39:19.775Z,100.00
2023-08-12T03:41:47.464Z,100.00
2023-08-12T03:44:15.236Z,100.00
2023-08-12T03:46:42.196Z,100.00
2023-08-12T03:49:09.624Z,100.00
2023-08-12T03:51:36.639Z,100.00
2023-08-12T03:54:03.577Z,100.00
2023-08-12T03:56:30.888Z,99.05
2023-08-12T03:58:59.091Z,97.89
2023-08-12T04:01:25.992Z,95.70
2023-08-12T04:03:52.899Z,92.94
2023-08-12T04:06:19.920Z,92.35
2023-08-12T04:08:46.827Z,91.23
2023-08-12T04:11:13.639Z,90.17
2023-08-12T04:13:41.475Z,87.28
2023-08-12T04:16:08.362Z,85.79
2023-08-12T04:18:35.112Z,83.61
2023-08-12T04:21:02.597Z,81.64
2023-08-12T04:23:29.532Z,81.79
2023-08-12T04:25:57.560Z,80.07
2023-08-12T04:28:27.433Z,78.02
2023-08-12T04:30:54.377Z,75.17
2023-08-12T04:33:23.898Z,74.55
2023-08-12T04:35:51.340Z,69.83
2023-08-12T04:38:19.405Z,70.22
2023-08-12T04:40:48.331Z,68.78
2023-08-12T04:43:15.463Z,67.72
2023-08-12T04:45:47.046Z,65.61
2023-08-12T04:48:14.669Z,64.42
2023-08-12T04:50:43.697Z,63.41
2023-08-12T04:53:10.723Z,62.16
2023-08-12T04:55:37.644Z,59.72
2023-08-12T04:58:05.776Z,59.21
2023-08-12T05:00:33.669Z,58.31
2023-08-12T05:03:00.759Z,57.35
2023-08-12T05:05:28.250Z,57.14
2023-08-12T05:07:55.365Z,56.19
2023-08-12T05:10:22.991Z,55.68
2023-08-12T05:12:53.403Z,53.95
2023-08-12T05:15:20.443Z,53.83
2023-08-12T05:17:48.373Z,52.79
2023-08-12T05:20:18.933Z,53.10
2023-08-12T05:22:45.741Z,53.48
2023-08-12T05:25:12.632Z,52.58
2023-08-12T05:27:39.933Z,52.13
2023-08-12T05:30:07.530Z,51.25
2023-08-12T05:32:34.387Z,50.77
2023-08-12T05:35:01.503Z,49.19
2023-08-12T05:37:28.345Z,49.11
2023-08-12T05:39:55.237Z,48.28
2023-08-12T05:42:22.084Z,48.35
2023-08-12T05:44:48.869Z,47.33
2023-08-12T05:47:15.828Z,47.39
2023-08-12T05:49:43.603Z,47.14
2023-08-12T05:52:10.895Z,47.54
2023-08-12T05:54:38.387Z,47.57
2023-08-12T05:57:05.534Z,47.33
2023-08-12T05:59:32.396Z,48.00
2023-08-12T06:01:59.141Z,48.65
2023-08-12T06:04:26.121Z,49.33
2023-08-12T06:06:52.917Z,49.67
2023-08-12T06:09:19.820Z,50.74
2023-08-12T06:11:46.676Z,51.12
2023-08-12T06:14:13.543Z,51.58
2023-08-12T06:16:40.545Z,51.40
2023-08-12T06:19:07.482Z,52.55
2023-08-12T06:21:34.279Z,52.72
2023-08-12T06:24:01.041Z,52.99
2023-08-12T06:26:27.862Z,54.07
2023-08-12T06:28:54.724Z,54.03
2023-08-12T06:31:21.528Z,53.43
2023-08-12T06:33:48.390Z,52.88
2023-08-12T06:36:15.241Z,52.47
2023-08-12T06:38:42.045Z,52.17
2023-08-12T06:41:08.817Z,49.80
2023-08-12T06:43:36.426Z,47.71
2023-08-12T06:46:03.853Z,46.75
2023-08-12T06:48:30.780Z,43.40
2023-08-12T06:50:57.828Z,41.08
2023-08-12T06:53:26.202Z,39.06
2023-08-12T06:55:53.028Z,38.15
2023-08-12T06:58:19.884Z,36.43
2023-08-12T07:00:46.708Z,35.61
2023-08-12T07:03:13.671Z,35.17
2023-08-12T07:05:40.624Z,34.32
2023-08-12T07:08:07.519Z,34.65
2023-08-12T07:10:34.329Z,34.84
2023-08-12T07:13:01.197Z,35.00
2023-08-12T07:15:28.026Z,35.19
2023-08-12T07:17:54.931Z,35.83
2023-08-12T07:20:21.751Z,36.20
2023-08-12T07:22:48.598Z,36.94
2023-08-12T07:25:15.552Z,35.56
2023-08-12T07:27:42.429Z,34.52
2023-08-12T07:30:10.329Z,33.37
2023-08-12T07:32:39.048Z,32.60
2023-08-12T07:35:06.998Z,32.10
2023-08-12T07:37:34.050Z,31.72
2023-08-12T07:40:01.075Z,31.93
2023-08-12T07:42:27.954Z,32.26
2023-08-12T07:44:54.815Z,32.70
2023-08-12T07:47:21.784Z,32.94
2023-08-12T07:49:48.673Z,32.78
2023-08-12T07:52:15.497Z,33.45
2023-08-12T07:54:42.604Z,33.87
2023-08-12T07:57:09.407Z,34.28
2023-08-12T07:59:36.228Z,34.82
2023-08-12T08:02:03.164Z,34.22
2023-08-12T08:04:30.144Z,33.91
2023-08-12T08:06:57.023Z,34.60
2023-08-12T08:09:23.862Z,34.93
2023-08-12T08:11:50.859Z,34.85
2023-08-12T08:14:17.695Z,35.12
2023-08-12T08:16:44.582Z,35.29
2023-08-12T08:19:13.327Z,35.26
2023-08-12T08:21:41.128Z,35.44
2023-08-12T08:24:09.549Z,35.02
2023-08-12T08:26:36.441Z,35.46
2023-08-12T08:29:03.302Z,34.53
2023-08-12T08:31:30.125Z,33.22
2023-08-12T08:33:56.984Z,33.73
2023-08-12T08:36:24.218Z,34.13
2023-08-12T08:38:51.107Z,33.53
2023-08-12T08:41:18.447Z,33.18
2023-08-12T08:43:48.826Z,33.24
2023-08-12T08:46:17.276Z,33.63
2023-08-12T08:48:45.009Z,33.83
2023-08-12T08:51:12.770Z,33.45
2023-08-12T08:53:40.499Z,32.81
2023-08-12T08:56:15.843Z,32.79
2023-08-12T08:58:42.927Z,32.62
2023-08-12T09:01:10.327Z,32.63
2023-08-12T09:03:39.169Z,32.56
2023-08-12T09:06:06.677Z,31.74
2023-08-12T09:08:35.084Z,31.70
2023-08-12T09:11:03.436Z,31.46
2023-08-12T09:13:31.131Z,30.96
2023-08-12T09:15:58.559Z,29.91
2023-08-12T09:18:27.745Z,29.32
2023-08-12T09:20:55.528Z,29.21
2023-08-12T09:23:22.344Z,27.97
2023-08-12T09:25:49.692Z,26.74
2023-08-12T09:28:16.816Z,27.15
2023-08-12T09:30:51.287Z,26.74
2023-08-12T09:33:27.798Z,27.01
2023-08-12T09:35:57.901Z,26.60
2023-08-12T09:38:24.969Z,26.67
2023-08-12T09:40:54.073Z,26.80
2023-08-12T09:43:25.745Z,25.95
2023-08-12T09:45:57.980Z,26.04
2023-08-12T09:48:25.367Z,25.46
2023-08-12T09:50:53.860Z,25.75
2023-08-12T09:53:23.205Z,25.54
2023-08-12T09:55:53.573Z,25.05
2023-08-12T09:58:25.289Z,25.48
2023-08-12T10:00:52.966Z,25.27
2023-08-12T10:03:21.525Z,25.46
2023-08-12T10:05:48.958Z,25.74
2023-08-12T10:08:16.312Z,25.42
2023-08-12T10:10:45.870Z,26.20
2023-08-12T10:13:13.416Z,26.43
2023-08-12T10:15:41.254Z,27.76
2023-08-12T10:18:11.828Z,28.57
2023-08-12T10:20:40.568Z,27.69
2023-08-12T10:23:09.206Z,26.81
2023-08-12T10:25:39.257Z,26.14
2023-08-12T10:28:06.479Z,25.86
2023-08-12T10:30:35.961Z,26.00
2023-08-12T10:33:04.434Z,26.40
2023-08-12T10:35:45.440Z,27.28
2023-08-12T10:38:14.765Z,26.34
2023-08-12T10:40:42.301Z,26.78
2023-08-12T10:43:09.451Z,27.61
2023-08-12T10:45:51.215Z,27.52
2023-08-12T10:48:26.208Z,28.35
2023-08-12T10:50:56.086Z,29.03
2023-08-12T10:53:32.920Z,28.39
2023-08-12T10:56:04.650Z,27.99
2023-08-12T10:58:46.357Z,28.46
2023-08-12T11:01:20.021Z,27.31
2023-08-12T11:03:49.209Z,27.65
2023-08-12T11:06:16.164Z,28.52
2023-08-12T11:08:53.588Z,29.00
2023-08-12T11:11:22.323Z,29.64
2023-08-12T11:14:00.145Z,30.10
2023-08-12T11:16:37.641Z,30.55
2023-08-12T11:19:05.738Z,31.00
2023-08-12T11:21:33.214Z,31.86
2023-08-12T11:24:01.072Z,31.74
2023-08-12T11:26:27.852Z,32.11
2023-08-12T11:28:54.811Z,32.80
2023-08-12T11:31:23.561Z,32.49
2023-08-12T11:33:50.626Z,32.37
2023-08-12T11:36:17.955Z,31.74
2023-08-12T11:38:45.159Z,31.75
2023-08-12T11:41:13.066Z,31.69
2023-08-12T11:43:39.878Z,31.15
2023-08-12T11:46:06.769Z,31.14
2023-08-12T11:48:33.929Z,29.70
2023-08-12T11:51:01.160Z,29.41
2023-08-12T11:53:28.469Z,29.13
2023-08-12T11:55:55.499Z,28.65
2023-08-12T11:58:24.389Z,28.64
2023-08-12T12:00:52.742Z,28.38
2023-08-12T12:03:19.715Z,28.62
2023-08-12T12:05:47.844Z,28.92
2023-08-12T12:08:15.310Z,29.07
2023-08-12T12:10:42.450Z,29.61
2023-08-12T12:13:12.118Z,28.12
2023-08-12T12:15:45.407Z,27.83
2023-08-12T12:18:13.916Z,28.03
2023-08-12T12:20:56.870Z,27.50
2023-08-12T12:23:29.503Z,27.88
2023-08-12T12:26:03.940Z,28.41
2023-08-12T12:28:31.610Z,29.61
2023-08-12T12:30:58.460Z,28.92
2023-08-12T12:33:25.425Z,29.38
2023-08-12T12:35:58.866Z,29.98
2023-08-12T12:38:28.057Z,30.75
2023-08-12T12:40:55.008Z,30.10
2023-08-12T12:43:21.894Z,29.87
2023-08-12T12:45:48.711Z,30.67
2023-08-12T12:48:15.665Z,30.67
2023-08-12T12:50:42.505Z,30.51
2023-08-12T12:53:09.315Z,30.64
2023-08-12T12:55:36.292Z,30.40
2023-08-12T12:58:03.220Z,28.66
2023-08-12T13:00:31.016Z,27.56
2023-08-12T13:02:57.892Z,26.65
2023-08-12T13:05:24.846Z,24.89
2023-08-12T13:07:51.674Z,24.31
2023-08-12T13:10:18.618Z,24.11
2023-08-12T13:12:45.471Z,23.20
2023-08-12T13:15:13.022Z,23.14
2023-08-12T13:17:39.953Z,22.15
2023-08-12T13:20:07.530Z,22.66
2023-08-12T13:22:34.443Z,22.63
2023-08-12T13:25:01.388Z,22.79
2023-08-12T13:27:29.000Z,22.77
2023-08-12T13:29:55.872Z,22.81
2023-08-12T13:32:23.309Z,23.13
2023-08-12T13:34:50.242Z,23.40
2023-08-12T13:37:17.188Z,23.16
2023-08-12T13:39:44.153Z,22.83
2023-08-12T13:42:11.345Z,23.26
2023-08-12T13:44:38.589Z,22.02
2023-08-12T13:47:05.559Z,21.68
2023-08-12T13:49:33.023Z,21.73
2023-08-12T13:52:02.730Z,21.77
2023-08-12T13:54:29.688Z,22.03
2023-08-12T13:56:56.520Z,22.76
2023-08-12T13:59:23.470Z,22.69
2023-08-12T14:01:50.347Z,23.15
2023-08-12T14:04:17.270Z,22.93
2023-08-12T14:06:44.900Z,23.48
2023-08-12T14:09:14.935Z,23.93
2023-08-12T14:11:41.941Z,23.82
2023-08-12T14:14:08.981Z,24.35
2023-08-12T14:16:36.968Z,24.79
2023-08-12T14:19:04.226Z,25.19
2023-08-12T14:21:31.210Z,25.61
2023-08-12T14:23:58.241Z,25.79
2023-08-12T14:26:25.348Z,25.83
2023-08-12T14:28:52.227Z,26.11
2023-08-12T14:31:20.204Z,26.04
2023-08-12T14:33:47.026Z,26.79
2023-08-12T14:36:13.901Z,27.34
2023-08-12T14:38:40.770Z,27.81
2023-08-12T14:41:07.776Z,27.57
2023-08-12T14:43:34.625Z,27.53
2023-08-12T14:46:01.616Z,28.14
2023-08-12T14:48:28.495Z,28.59
2023-08-12T14:50:56.843Z,29.19
2023-08-12T14:53:23.809Z,29.75
2023-08-12T14:55:50.586Z,30.58
2023-08-12T14:58:17.570Z,31.20
2023-08-12T15:00:44.513Z,31.57
2023-08-12T15:03:12.855Z,32.07
2023-08-12T15:05:39.797Z,31.76
2023-08-12T15:08:06.915Z,32.57
2023-08-12T15:10:34.182Z,32.64
2023-08-12T15:13:01.018Z,32.95
2023-08-12T15:15:27.825Z,32.89
2023-08-12T15:17:54.754Z,33.10
2023-08-12T15:20:21.735Z,34.14
2023-08-12T15:22:48.703Z,34.64
2023-08-12T15:25:15.650Z,35.35
2023-08-12T15:27:42.497Z,35.19
2023-08-12T15:30:09.701Z,35.64
2023-08-12T15:32:39.373Z,36.72
2023-08-12T15:35:07.845Z,37.00
2023-08-12T15:37:35.199Z,36.79
2023-08-12T15:40:02.224Z,36.97
2023-08-12T15:42:29.087Z,37.48
2023-08-12T15:44:55.936Z,38.02
2023-08-12T15:47:22.842Z,38.60
2023-08-12T15:49:49.652Z,38.44
2023-08-12T15:52:16.563Z,38.68
2023-08-12T15:54:43.376Z,38.65
2023-08-12T15:57:11.571Z,39.37
2023-08-12T15:59:38.929Z,39.32
2023-08-12T16:02:05.822Z,39.84
2023-08-12T16:04:33.208Z,40.25
2023-08-12T16:07:00.082Z,40.13
2023-08-12T16:09:26.978Z,40.28
2023-08-12T16:11:55.495Z,40.13
2023-08-12T16:14:22.459Z,39.39
2023-08-12T16:16:49.324Z,38.71
2023-08-12T16:19:16.155Z,39.21
2023-08-12T16:21:43.026Z,40.01
2023-08-12T16:24:09.882Z,39.72
2023-08-12T16:26:36.689Z,40.36
2023-08-12T16:29:03.610Z,40.23
2023-08-12T16:31:32.089Z,40.70
2023-08-12T16:33:59.811Z,40.88
2023-08-12T16:36:26.656Z,41.19
2023-08-12T16:38:53.566Z,41.73
2023-08-12T16:41:20.490Z,42.10
2023-08-12T16:43:47.445Z,42.06
2023-08-12T16:46:14.261Z,42.33
2023-08-12T16:48:41.061Z,42.86
2023-08-12T16:51:08.005Z,42.93
2023-08-12T16:53:34.897Z,43.30
2023-08-12T16:56:01.760Z,43.26
2023-08-12T16:58:28.741Z,43.66
2023-08-12T17:00:55.765Z,43.57
2023-08-12T17:03:22.624Z,44.03
2023-08-12T17:05:49.585Z,44.58
2023-08-12T17:08:16.499Z,44.84
2023-08-12T17:10:43.337Z,45.21
2023-08-12T17:13:10.279Z,45.52
2023-08-12T17:15:37.160Z,45.93
2023-08-12T17:18:04.613Z,46.78
2023-08-12T17:20:31.530Z,47.42
2023-08-12T17:22:58.464Z,48.34
2023-08-12T17:25:25.462Z,48.75
2023-08-12T17:27:52.590Z,48.82
2023-08-12T17:30:19.926Z,50.01
2023-08-12T17:32:46.994Z,50.79
2023-08-12T17:35:14.158Z,51.40
2023-08-12T17:37:41.788Z,52.22
2023-08-12T17:40:11.804Z,52.57
2023-08-12T17:42:38.916Z,53.36
2023-08-12T17:45:07.191Z,54.17
2023-08-12T17:47:34.733Z,55.56
2023-08-12T17:50:01.739Z,56.55
2023-08-12T17:52:28.528Z,56.96
2023-08-12T17:54:55.405Z,57.93
2023-08-12T17:57:22.430Z,58.33
2023-08-12T17:59:49.442Z,58.56
2023-08-12T18:02:16.555Z,59.32
2023-08-12T18:04:43.828Z,59.88
2023-08-12T18:07:10.939Z,60.53
2023-08-12T18:09:37.793Z,60.77
2023-08-12T18:12:04.820Z,61.28
2023-08-12T18:14:31.728Z,61.55
2023-08-12T18:16:58.740Z,61.85
2023-08-12T18:19:25.867Z,62.12
2023-08-12T18:21:53.024Z,62.38
2023-08-12T18:24:19.973Z,62.16
2023-08-12T18:26:47.027Z,62.65
2023-08-12T18:29:13.949Z,62.64
2023-08-12T18:31:40.937Z,63.32
2023-08-12T18:34:07.836Z,63.36
2023-08-12T18:36:34.894Z,63.78
2023-08-12T18:39:01.852Z,64.14
2023-08-12T18:41:28.929Z,64.08
2023-08-12T18:43:55.774Z,64.59
2023-08-12T18:46:22.687Z,64.63
2023-08-12T18:48:49.748Z,64.76
2023-08-12T18:51:17.154Z,64.73
2023-08-12T18:53:44.261Z,64.90
2023-08-12T18:56:11.147Z,64.44
2023-08-12T18:58:38.071Z,64.26
2023-08-12T19:01:05.018Z,63.71
2023-08-12T19:03:32.092Z,64.07
2023-08-12T19:06:00.433Z,64.13
2023-08-12T19:08:27.981Z,64.12
2023-08-12T19:10:59.139Z,64.06
2023-08-12T19:13:26.667Z,63.34
2023-08-12T19:15:55.187Z,63.38
2023-08-12T19:18:26.973Z,63.25
2023-08-12T19:20:53.950Z,63.03
2023-08-12T19:23:21.347Z,62.68
2023-08-12T19:25:48.359Z,63.21
2023-08-12T19:28:15.340Z,63.06
2023-08-12T19:30:42.342Z,62.81
2023-08-12T19:33:09.265Z,62.84
2023-08-12T19:35:36.437Z,62.81
2023-08-12T19:38:03.369Z,62.95
2023-08-12T19:40:30.612Z,62.93
2023-08-12T19:42:57.561Z,62.70
2023-08-12T19:45:24.697Z,62.61
2023-08-12T19:47:51.568Z,62.69
2023-08-12T19:50:18.509Z,62.40
2023-08-12T19:52:45.444Z,62.46
2023-08-12T19:55:12.486Z,62.20
2023-08-12T19:57:40.174Z,62.30
2023-08-12T20:00:10.840Z,62.28
2023-08-12T20:02:42.900Z,62.55
2023-08-12T20:05:15.381Z,62.81
2023-08-12T20:07:43.472Z,62.76
2023-08-12T20:10:11.407Z,62.68
2023-08-12T20:12:38.470Z,63.72
2023-08-12T20:15:09.384Z,63.68
2023-08-12T20:17:36.627Z,63.82
2023-08-12T20:20:06.065Z,63.46
2023-08-12T20:22:32.866Z,63.61
2023-08-12T20:24:59.838Z,63.72
2023-08-12T20:27:26.922Z,63.55
2023-08-12T20:29:53.837Z,64.02
2023-08-12T20:32:20.785Z,64.15
2023-08-12T20:34:47.563Z,64.36
2023-08-12T20:37:14.604Z,64.52
2023-08-12T20:39:41.622Z,64.83
2023-08-12T20:42:08.747Z,64.68
2023-08-12T20:44:35.628Z,64.88
2023-08-12T20:47:02.383Z,65.32
2023-08-12T20:49:29.469Z,65.60
2023-08-12T20:51:56.318Z,65.29
2023-08-12T20:54:23.890Z,65.47
2023-08-12T20:56:52.083Z,65.66
2023-08-12T20:59:18.850Z,66.43
2023-08-12T21:01:45.970Z,67.34
2023-08-12T21:04:12.830Z,67.46
2023-08-12T21:06:39.789Z,67.69
2023-08-12T21:09:07.092Z,68.38
2023-08-12T21:11:34.121Z,68.06
2023-08-12T21:14:00.925Z,67.55
2023-08-12T21:16:27.797Z,68.38
2023-08-12T21:18:54.867Z,68.54
2023-08-12T21:21:21.794Z,68.30
2023-08-12T21:23:48.659Z,69.04
2023-08-12T21:26:15.739Z,68.93
2023-08-12T21:28:42.675Z,69.14
2023-08-12T21:31:11.182Z,69.48
2023-08-12T21:33:38.020Z,69.72
2023-08-12T21:36:06.437Z,70.27
2023-08-12T21:38:33.249Z,70.69
2023-08-12T21:41:00.057Z,70.66
2023-08-12T21:43:26.892Z,71.22
2023-08-12T21:45:53.830Z,71.54
2023-08-12T21:48:20.674Z,71.07
2023-08-12T21:50:47.532Z,71.45
2023-08-12T21:53:14.343Z,71.37
2023-08-12T21:55:41.156Z,71.38
2023-08-12T21:58:07.957Z,71.62
2023-08-12T22:00:34.939Z,71.20
2023-08-12T22:03:01.934Z,72.28
2023-08-12T22:05:28.889Z,73.28
2023-08-12T22:07:55.737Z,73.75
2023-08-12T22:10:22.621Z,74.63
2023-08-12T22:12:49.597Z,74.62
2023-08-12T22:15:16.709Z,75.81
2023-08-12T22:17:45.499Z,75.95
2023-08-12T22:20:14.952Z,75.84
2023-08-12T22:22:42.369Z,76.09
2023-08-12T22:25:09.507Z,75.93
2023-08-12T22:27:36.307Z,76.47
2023-08-12T22:30:06.146Z,77.29
2023-08-12T22:32:33.306Z,77.70
2023-08-12T22:35:00.158Z,77.97
2023-08-12T22:37:27.132Z,78.81
2023-08-12T22:39:53.999Z,80.10
2023-08-12T22:42:20.840Z,80.36
2023-08-12T22:44:47.714Z,81.13
2023-08-12T22:47:14.576Z,81.21
2023-08-12T22:49:41.357Z,81.58
2023-08-12T22:52:08.322Z,81.58
2023-08-12T22:54:35.231Z,82.38
2023-08-12T22:57:02.126Z,82.46
2023-08-12T22:59:29.037Z,82.82
2023-08-12T23:01:55.954Z,82.30
2023-08-12T23:04:22.952Z,82.46
2023-08-12T23:06:49.891Z,82.94
2023-08-12T23:09:16.961Z,83.29
2023-08-12T23:11:43.992Z,83.13
2023-08-12T23:14:10.901Z,84.27
2023-08-12T23:16:38.121Z,84.87
2023-08-12T23:19:05.103Z,84.88
2023-08-12T23:21:32.014Z,84.71
2023-08-12T23:23:58.853Z,85.10
2023-08-12T23:26:25.696Z,84.90
2023-08-12T23:28:52.640Z,85.12
2023-08-12T23:31:19.573Z,85.66
2023-08-12T23:33:46.565Z,86.24
2023-08-12T23:36:13.516Z,87.21
2023-08-12T23:38:40.396Z,87.14
2023-08-12T23:41:07.310Z,87.49
2023-08-12T23:43:34.198Z,89.18
2023-08-12T23:46:01.596Z,89.39
2023-08-12T23:48:28.490Z,88.34
2023-08-12T23:50:55.366Z,87.90
2023-08-12T23:53:22.250Z,87.13
2023-08-12T23:55:49.135Z,87.00
2023-08-12T23:58:16.599Z,87.24
